Time;durP1;ratioP1;P1;durP2;ratioP2;P2;SDS_P1;SDS_P2;PMS_P1;PMS_P2;Temp;Humidity;BMP_temperature;BMP_pressure;BME280_temperature;BME280_humidity;BME280_pressure;Samples;Min_cycle;Max_cycle;Signal;HPM_P1;HPM_P2
2023/09/06 00:01:44;;;;;;;6.10;4.10;;;;;;;12.54;100.00;101817.16;107316;1245;59873;-66
2023/09/06 00:04:13;;;;;;;7.30;4.40;;;;;;;12.38;100.00;101819.17;107343;1251;62499;-66
2023/09/06 00:06:42;;;;;;;7.10;4.40;;;;;;;12.26;100.00;101820.60;107322;1245;58941;-66
2023/09/06 00:09:11;;;;;;;9.30;5.30;;;;;;;12.18;100.00;101820.07;107308;1242;58976;-66
2023/09/06 00:11:40;;;;;;;8.10;4.40;;;;;;;12.10;100.00;101820.41;107245;1254;62443;-66
2023/09/06 00:14:09;;;;;;;6.70;4.30;;;;;;;12.01;100.00;101817.13;107167;1244;60915;-66
2023/09/06 00:16:38;;;;;;;6.80;4.00;;;;;;;11.93;100.00;101817.23;107254;1245;59465;-67
2023/09/06 00:19:07;;;;;;;8.50;4.70;;;;;;;12.03;100.00;101815.05;107389;1245;62641;-67
2023/09/06 00:21:40;;;;;;;7.60;4.50;;;;;;;11.97;100.00;101816.67;107415;1245;62876;-67
2023/09/06 00:24:12;;;;;;;;;;;;;;;11.90;100.00;101822.61;107377;1251;59133;-66
2023/09/06 00:26:42;;;;;;;9.40;4.60;;;;;;;11.82;100.00;101820.55;107506;1242;73478;-68
2023/09/06 00:29:11;;;;;;;7.90;4.40;;;;;;;11.66;100.00;101818.12;107178;1241;353552;-66
2023/09/06 00:31:41;;;;;;;6.20;4.10;;;;;;;11.69;100.00;101815.85;107457;1254;70500;-66
2023/09/06 00:34:10;;;;;;;8.50;4.20;;;;;;;11.80;100.00;101813.31;107468;1251;62634;-68
2023/09/06 00:36:39;;;;;;;7.30;4.50;;;;;;;12.08;100.00;101812.64;107505;1250;58941;-67
2023/09/06 00:39:09;;;;;;;8.20;4.30;;;;;;;12.32;100.00;101814.15;107479;1245;58936;-67
2023/09/06 00:41:41;;;;;;;7.60;4.20;;;;;;;12.13;100.00;101811.16;107434;1245;62034;-66
2023/09/06 00:44:10;;;;;;;6.30;4.30;;;;;;;11.89;100.00;101811.19;107441;1241;70361;-67
2023/09/06 00:46:39;;;;;;;10.30;4.70;;;;;;;11.74;100.00;101812.13;107418;1251;70049;-66
2023/09/06 00:49:08;;;;;;;7.70;4.50;;;;;;;11.64;100.00;101814.77;107436;1244;73334;-67
2023/09/06 00:51:38;;;;;;;6.80;4.40;;;;;;;11.48;100.00;101812.04;107409;1244;63229;-67
2023/09/06 00:54:08;;;;;;;6.30;4.30;;;;;;;11.36;100.00;101813.98;107379;1251;61384;-67
2023/09/06 00:56:39;;;;;;;6.90;5.00;;;;;;;11.26;100.00;101816.48;107368;1254;74856;-66
2023/09/06 00:59:12;;;;;;;8.70;4.20;;;;;;;11.24;100.00;101818.86;107417;1244;61106;-68
2023/09/06 01:01:41;;;;;;;8.30;4.40;;;;;;;11.29;100.00;101819.92;107353;1244;59775;-68
2023/09/06 01:04:10;;;;;;;6.90;4.10;;;;;;;11.35;100.00;101820.31;107378;1251;62760;-69
2023/09/06 01:06:42;;;;;;;8.80;5.20;;;;;;;11.23;100.00;101817.32;108832;1244;62112;-69
2023/09/06 01:09:11;;;;;;;6.40;4.50;;;;;;;11.30;100.00;101820.91;108341;1245;61414;-69
2023/09/06 01:11:40;;;;;;;9.50;4.80;;;;;;;11.31;100.00;101819.31;107338;1241;72378;-70
2023/09/06 01:14:09;;;;;;;6.30;4.30;;;;;;;11.46;100.00;101815.65;107381;1244;62590;-69
2023/09/06 01:16:44;;;;;;;7.50;4.10;;;;;;;11.77;100.00;101823.81;107331;1248;59283;-67
2023/09/06 01:19:15;;;;;;;6.90;4.40;;;;;;;11.71;100.00;101820.61;107349;1244;62484;-67
2023/09/06 01:22:22;;;;;;;6.40;4.10;;;;;;;11.45;100.00;101820.05;107252;1245;58753;-67
2023/09/06 01:24:50;;;;;;;6.30;4.10;;;;;;;11.21;100.00;101818.64;107323;1243;59113;-68
2023/09/06 01:27:20;;;;;;;6.80;4.30;;;;;;;11.02;100.00;101816.28;107184;1255;64241;-67
2023/09/06 01:29:49;;;;;;;8.10;4.80;;;;;;;10.90;100.00;101815.39;107173;1242;71761;-68
2023/09/06 01:32:18;;;;;;;8.30;4.30;;;;;;;11.11;100.00;101818.67;107123;1255;70512;-69
2023/09/06 01:34:47;;;;;;;6.50;4.20;;;;;;;11.02;100.00;101816.77;107214;1250;74676;-68
2023/09/06 01:37:16;;;;;;;7.90;4.50;;;;;;;10.92;100.00;101813.70;107340;1245;61941;-70
2023/09/06 01:39:45;;;;;;;7.10;4.30;;;;;;;10.87;100.00;101815.21;107391;1251;62006;-69
2023/09/06 01:42:14;;;;;;;6.70;4.40;;;;;;;10.83;100.00;101816.64;107217;1241;73361;-68
2023/09/06 01:44:43;;;;;;;8.00;5.40;;;;;;;10.77;100.00;101818.00;107241;1250;72867;-68
2023/09/06 01:47:12;;;;;;;6.90;4.40;;;;;;;11.01;100.00;101820.52;107365;1242;70765;-68
2023/09/06 01:49:45;;;;;;;8.20;4.50;;;;;;;11.09;100.00;101822.48;107154;1244;63354;-68
2023/09/06 01:52:14;;;;;;;6.30;4.70;;;;;;;10.90;100.00;101823.20;107307;1244;63269;-67
2023/09/06 01:54:45;;;;;;;7.40;4.20;;;;;;;10.74;100.00;101818.69;107319;1241;60922;-67
2023/09/06 01:57:14;;;;;;;7.60;4.60;;;;;;;10.66;100.00;101818.12;107308;1252;63170;-70
2023/09/06 01:59:43;;;;;;;7.10;4.30;;;;;;;10.72;100.00;101820.39;107306;1251;62057;-70
2023/09/06 02:02:12;;;;;;;7.70;5.00;;;;;;;10.98;100.00;101823.27;107223;1255;59226;-68
2023/09/06 02:04:41;;;;;;;7.70;4.10;;;;;;;11.04;100.00;101822.45;107377;1245;63939;-69
2023/09/06 02:07:10;;;;;;;7.40;4.70;;;;;;;10.90;100.00;101823.73;107309;1241;59147;-67
2023/09/06 02:09:39;;;;;;;7.90;5.00;;;;;;;11.13;100.00;101826.29;107295;1244;57411;-70
2023/09/06 02:12:09;;;;;;;8.10;5.10;;;;;;;11.16;100.00;101826.13;107350;1246;62918;-67
2023/09/06 02:14:38;;;;;;;7.60;5.20;;;;;;;10.98;100.00;101829.73;107405;1245;61080;-66
2023/09/06 02:17:07;;;;;;;9.00;5.60;;;;;;;10.85;100.00;101829.79;107277;1255;60333;-66
2023/09/06 02:19:36;;;;;;;8.40;5.50;;;;;;;10.76;100.00;101828.67;107430;1241;63291;-67
2023/09/06 02:22:05;;;;;;;9.00;5.30;;;;;;;10.73;100.00;101827.66;107261;1244;59447;-67
2023/09/06 02:24:34;;;;;;;7.70;4.80;;;;;;;11.02;100.00;101827.60;107364;1244;61632;-65
2023/09/06 02:27:03;;;;;;;6.80;4.60;;;;;;;11.17;100.00;101830.59;107387;1254;63929;-65
2023/09/06 02:29:32;;;;;;;8.80;4.70;;;;;;;11.56;100.00;101826.59;107323;1244;71826;-67
2023/09/06 02:32:02;;;;;;;8.80;4.90;;;;;;;11.89;100.00;101832.01;107339;1241;70339;-67
2023/09/06 02:34:31;;;;;;;6.80;4.30;;;;;;;11.99;100.00;101828.61;107323;1244;63286;-67
2023/09/06 02:37:00;;;;;;;7.90;4.40;;;;;;;11.69;100.00;101829.81;107194;1247;59048;-68
2023/09/06 02:39:29;;;;;;;9.20;5.10;;;;;;;11.37;100.00;101824.89;107235;1244;60494;-68
2023/09/06 02:42:00;;;;;;;7.80;4.40;;;;;;;11.09;100.00;101828.23;107324;1245;74327;-68
2023/09/06 02:44:29;;;;;;;6.90;4.50;;;;;;;11.06;100.00;101832.80;107309;1254;70846;-68
2023/09/06 02:46:58;;;;;;;7.10;4.30;;;;;;;11.32;100.00;101832.48;107285;1242;59850;-68
2023/09/06 02:49:30;;;;;;;9.10;4.80;;;;;;;11.46;100.00;101831.20;107311;1245;62472;-68
2023/09/06 02:51:59;;;;;;;7.30;4.50;;;;;;;11.52;100.00;101832.19;107271;1244;59126;-68
2023/09/06 02:54:29;;;;;;;7.80;4.70;;;;;;;11.29;100.00;101832.85;107239;1245;58784;-68
2023/09/06 02:56:58;;;;;;;10.30;5.00;;;;;;;11.03;100.00;101831.72;107209;1253;72973;-68
2023/09/06 02:59:28;;;;;;;6.50;4.40;;;;;;;10.90;100.00;101830.52;107281;1251;61367;-68
2023/09/06 03:01:59;;;;;;;8.30;4.50;;;;;;;10.88;100.00;101832.05;107221;1242;70699;-69
2023/09/06 03:04:33;;;;;;;8.30;4.40;;;;;;;10.72;100.00;101836.39;107215;1250;72356;-69
2023/09/06 03:07:02;;;;;;;7.40;4.50;;;;;;;10.55;100.00;101838.55;107252;1241;62583;-67
2023/09/06 03:09:32;;;;;;;7.40;4.30;;;;;;;10.46;100.00;101835.95;107440;1241;58144;-66
2023/09/06 03:12:11;;;;;;;8.40;4.70;;;;;;;10.54;100.00;101835.30;107393;1241;72259;-67
2023/09/06 03:14:44;;;;;;;7.10;4.60;;;;;;;10.76;100.00;101839.48;107347;1245;61806;-67
2023/09/06 03:17:22;;;;;;;8.10;4.50;;;;;;;10.63;100.00;101842.46;107338;1253;59009;-68
2023/09/06 03:19:53;;;;;;;8.10;4.70;;;;;;;10.44;100.00;101844.40;107359;1248;64002;-68
2023/09/06 03:22:23;;;;;;;6.80;4.00;;;;;;;10.32;100.00;101842.40;107460;1252;59074;-66
2023/09/06 03:24:55;;;;;;;7.30;4.90;;;;;;;10.61;100.00;101839.44;107374;1252;57554;-65
2023/09/06 03:27:24;;;;;;;8.70;4.40;;;;;;;10.82;100.00;101843.72;107351;1242;72555;-65
2023/09/06 03:29:53;;;;;;;13.40;6.00;;;;;;;10.66;100.00;101844.58;107342;1247;72369;-66
2023/09/06 03:32:23;;;;;;;8.60;5.00;;;;;;;10.70;100.00;101846.10;107455;1249;60102;-66
2023/09/06 03:34:54;;;;;;;9.50;5.70;;;;;;;10.94;100.00;101844.80;107393;1251;74804;-65
2023/09/06 03:37:23;;;;;;;12.10;4.80;;;;;;;10.68;100.00;101848.48;107390;1242;63187;-65
2023/09/06 03:39:53;;;;;;;9.50;4.90;;;;;;;10.51;100.00;101850.45;107421;1244;58997;-65
2023/09/06 03:42:23;;;;;;;10.10;4.70;;;;;;;10.46;100.00;101849.48;107397;1247;72749;-65
2023/09/06 03:44:52;;;;;;;6.80;4.80;;;;;;;10.47;100.00;101853.13;107405;1243;72121;-65
2023/09/06 03:47:21;;;;;;;11.30;6.20;;;;;;;10.50;100.00;101856.09;107347;1241;71917;-65
2023/09/06 03:49:50;;;;;;;8.60;5.00;;;;;;;10.59;100.00;101859.79;107392;1253;64073;-66
2023/09/06 03:52:19;;;;;;;8.70;5.30;;;;;;;10.54;100.00;101861.08;107347;1242;59048;-66
2023/09/06 03:54:50;;;;;;;8.80;5.20;;;;;;;10.52;100.00;101864.86;107388;1244;58996;-66
2023/09/06 03:57:20;;;;;;;10.50;5.20;;;;;;;10.68;100.00;101861.23;107406;1244;62189;-65
2023/09/06 03:59:49;;;;;;;13.40;6.20;;;;;;;10.87;100.00;101865.23;107413;1244;70611;-68
2023/09/06 04:02:18;;;;;;;10.40;6.00;;;;;;;10.71;100.00;101864.02;107352;1241;60199;-68
2023/09/06 04:04:48;;;;;;;9.30;6.20;;;;;;;10.61;100.00;101867.34;107347;1241;63243;-66
2023/09/06 04:07:20;;;;;;;11.50;6.10;;;;;;;10.76;100.00;101873.29;107374;1242;61973;-66
2023/09/06 04:09:56;;;;;;;10.70;7.60;;;;;;;11.04;100.00;101875.77;107418;1241;59052;-67
2023/09/06 04:12:25;;;;;;;17.40;7.00;;;;;;;11.27;100.00;101882.67;107428;1253;62808;-68
2023/09/06 04:14:57;;;;;;;9.70;5.90;;;;;;;11.39;100.00;101885.31;107390;1245;61044;-70
2023/09/06 04:17:27;;;;;;;12.40;7.00;;;;;;;11.37;100.00;101885.73;107350;1244;59817;-70
2023/09/06 04:19:56;;;;;;;13.60;5.30;;;;;;;11.22;100.00;101883.83;107427;1245;71750;-71
2023/09/06 04:22:25;;;;;;;13.80;5.90;;;;;;;11.10;100.00;101875.95;107376;1249;59128;-70
2023/09/06 04:24:54;;;;;;;13.40;6.10;;;;;;;11.06;100.00;101876.38;107379;1251;59125;-70
2023/09/06 04:27:23;;;;;;;11.80;7.30;;;;;;;11.13;100.00;101879.08;107382;1247;73903;-68
2023/09/06 04:29:52;;;;;;;12.90;7.40;;;;;;;11.10;100.00;101884.30;107337;1254;72476;-66
2023/09/06 04:32:22;;;;;;;13.40;6.80;;;;;;;11.13;100.00;101885.04;107287;1247;70112;-69
2023/09/06 04:34:51;;;;;;;11.40;6.30;;;;;;;11.10;100.00;101887.84;107365;1251;74382;-70
2023/09/06 04:37:22;;;;;;;11.10;6.60;;;;;;;11.07;100.00;101894.94;107397;1241;63144;-69
2023/09/06 04:39:53;;;;;;;11.60;6.30;;;;;;;11.10;100.00;101900.54;107313;1253;61689;-69
2023/09/06 04:42:22;;;;;;;10.40;6.40;;;;;;;11.09;100.00;101903.77;107399;1247;72523;-69
2023/09/06 04:44:52;;;;;;;12.80;7.50;;;;;;;11.12;100.00;101902.16;107408;1245;72336;-68
2023/09/06 04:47:21;;;;;;;14.80;7.80;;;;;;;11.30;100.00;101899.91;107291;1244;71581;-67
2023/09/06 04:49:50;;;;;;;15.30;7.00;;;;;;;11.61;100.00;101900.45;107354;1244;73679;-68
2023/09/06 04:52:20;;;;;;;14.40;7.70;;;;;;;11.69;100.00;101901.02;107294;1242;57395;-67
2023/09/06 04:54:49;;;;;;;12.20;9.10;;;;;;;11.70;100.00;101907.76;107306;1244;58457;-69
2023/09/06 04:57:19;;;;;;;19.90;9.70;;;;;;;11.72;100.00;101907.98;107342;1253;62235;-70
2023/09/06 04:59:48;;;;;;;13.20;7.60;;;;;;;11.75;100.00;101905.00;107421;1245;61159;-67
2023/09/06 05:10:14;;;;;;;11.10;6.60;;;;;;;12.10;100.00;101916.95;104307;1276;602355;-68
2023/09/06 05:12:45;;;;;;;16.00;8.00;;;;;;;12.20;100.00;101915.48;106632;1251;59062;-68
2023/09/06 05:15:14;;;;;;;11.20;7.10;;;;;;;12.32;100.00;101919.14;106682;1248;60979;-67
2023/09/06 05:17:44;;;;;;;16.80;7.10;;;;;;;12.39;100.00;101917.30;106732;1250;61622;-67
2023/09/06 05:20:30;;;;;;;16.80;7.10;;;;;;;12.46;100.00;101920.02;106577;1251;61122;-68
2023/09/06 05:23:05;;;;;;;11.10;6.10;;;;;;;12.58;100.00;101923.17;106359;1252;331458;-68
2023/09/06 05:25:36;;;;;;;15.00;7.50;;;;;;;12.68;100.00;101921.62;106740;1255;73226;-67
2023/09/06 05:28:10;;;;;;;12.90;6.50;;;;;;;12.80;100.00;101925.45;106721;1257;63208;-65
2023/09/06 05:30:45;;;;;;;14.90;6.00;;;;;;;12.92;100.00;101924.17;106631;1248;58772;-66
2023/09/06 05:33:16;;;;;;;13.20;6.10;;;;;;;13.04;100.00;101923.21;106696;1246;72486;-71
2023/09/06 05:35:45;;;;;;;11.60;6.00;;;;;;;13.12;100.00;101924.79;107121;1251;61534;-69
2023/09/06 05:38:15;;;;;;;11.10;6.00;;;;;;;13.20;100.00;101923.80;107264;1251;60383;-70
2023/09/06 05:40:44;;;;;;;10.40;5.90;;;;;;;13.26;100.00;101919.77;106706;1254;63748;-69
2023/09/06 05:43:20;;;;;;;9.00;6.40;;;;;;;13.33;100.00;101915.84;106722;1248;62700;-72
2023/09/06 05:45:49;;;;;;;9.60;5.50;;;;;;;13.41;100.00;101917.04;106745;1253;62053;-69
2023/09/06 05:48:19;;;;;;;12.30;5.60;;;;;;;13.49;100.00;101918.79;106795;1247;72901;-70
2023/09/06 05:50:49;;;;;;;11.90;5.50;;;;;;;13.59;100.00;101922.70;106828;1249;71590;-70
2023/09/06 05:53:19;;;;;;;10.70;5.90;;;;;;;13.68;100.00;101925.06;106858;1260;61062;-69
2023/09/06 05:55:48;;;;;;;9.60;6.10;;;;;;;13.78;100.00;101925.60;106773;1246;63884;-68
2023/09/06 05:58:19;;;;;;;10.20;5.80;;;;;;;13.85;100.00;101929.40;106841;1249;57450;-71
2023/09/06 06:00:53;;;;;;;9.00;5.40;;;;;;;13.92;100.00;101933.78;106873;1249;60295;-69
2023/09/06 06:03:23;;;;;;;9.50;5.70;;;;;;;13.89;100.00;101923.28;106854;1247;62692;-73
2023/09/06 06:05:55;;;;;;;9.90;6.30;;;;;;;14.02;100.00;101929.39;106842;1250;70472;-69
2023/09/06 06:08:24;;;;;;;11.20;5.70;;;;;;;14.10;100.00;101933.09;106958;1248;69758;-69
2023/09/06 06:10:53;;;;;;;12.30;6.30;;;;;;;14.23;100.00;101933.60;107049;1248;73460;-69
2023/09/06 06:13:22;;;;;;;11.70;6.30;;;;;;;14.34;100.00;101933.20;106857;1251;59058;-68
2023/09/06 06:15:51;;;;;;;10.70;6.40;;;;;;;14.50;100.00;101929.84;106894;1250;58918;-68
2023/09/06 06:18:25;;;;;;;11.90;6.40;;;;;;;14.63;100.00;101929.33;106948;1248;71883;-69
2023/09/06 06:20:55;;;;;;;8.40;5.30;;;;;;;14.74;100.00;101929.38;106803;1251;72650;-70
2023/09/06 06:23:24;;;;;;;12.00;7.20;;;;;;;14.88;100.00;101929.95;106734;1248;71337;-69
2023/09/06 06:25:53;;;;;;;8.60;6.40;;;;;;;14.99;100.00;101927.58;106466;1260;63122;-68
2023/09/06 06:28:22;;;;;;;13.30;7.00;;;;;;;15.10;100.00;101928.23;106691;1247;58889;-70
2023/09/06 06:30:51;;;;;;;14.50;6.90;;;;;;;15.24;100.00;101925.47;106658;1257;59100;-70
2023/09/06 06:33:20;;;;;;;13.10;7.10;;;;;;;15.36;100.00;101924.91;106808;1250;61708;-71
2023/09/06 06:35:51;;;;;;;10.50;6.00;;;;;;;15.53;100.00;101929.11;106859;1249;62106;-69
2023/09/06 06:38:20;;;;;;;12.40;7.10;;;;;;;15.64;100.00;101927.41;106847;1260;69699;-72
2023/09/06 06:40:49;;;;;;;11.50;6.40;;;;;;;15.72;100.00;101928.26;106892;1250;62939;-69
2023/09/06 06:43:18;;;;;;;13.00;6.30;;;;;;;15.83;100.00;101930.38;106829;1251;58617;-69
2023/09/06 06:45:55;;;;;;;10.60;5.50;;;;;;;16.01;100.00;101926.91;106847;1248;61178;-81
2023/09/06 06:48:24;;;;;;;10.50;6.60;;;;;;;16.11;100.00;101926.54;106911;1251;61850;-68
2023/09/06 06:50:55;;;;;;;10.90;5.80;;;;;;;16.17;100.00;101923.09;106811;1251;71413;-70
2023/09/06 06:53:24;;;;;;;9.60;6.00;;;;;;;16.28;100.00;101918.70;106884;1251;69799;-69
2023/09/06 06:55:54;;;;;;;10.10;5.90;;;;;;;16.39;100.00;101921.00;106849;1246;73816;-69
2023/09/06 06:58:24;;;;;;;10.30;5.90;;;;;;;16.46;100.00;101920.10;106784;1250;59076;-69
2023/09/06 07:00:53;;;;;;;11.70;7.00;;;;;;;16.63;100.00;101923.00;106915;1248;59087;-69
2023/09/06 07:03:24;;;;;;;12.60;6.80;;;;;;;16.82;100.00;101919.79;106938;1259;62441;-70
2023/09/06 07:05:53;;;;;;;15.00;7.00;;;;;;;16.99;100.00;101918.02;106872;1250;60891;-69
2023/09/06 07:08:26;;;;;;;11.60;6.90;;;;;;;17.19;100.00;101920.17;106905;1247;60788;-71
2023/09/06 07:10:56;;;;;;;13.70;6.90;;;;;;;17.34;100.00;101921.05;106863;1257;73860;-70
2023/09/06 07:13:25;;;;;;;14.90;7.10;;;;;;;17.44;100.00;101918.42;106854;1254;57423;-70
2023/09/06 07:15:54;;;;;;;13.70;6.80;;;;;;;17.61;100.00;101920.35;106820;1251;59060;-68
2023/09/06 07:18:23;;;;;;;13.10;6.10;;;;;;;17.83;100.00;101917.03;106736;1257;72741;-68
2023/09/06 07:20:52;;;;;;;9.00;6.00;;;;;;;17.91;100.00;101906.77;106829;1257;72873;-70
2023/09/06 07:23:22;;;;;;;10.70;6.40;;;;;;;18.05;100.00;101914.74;106873;1259;71970;-72
2023/09/06 07:25:52;;;;;;;14.20;6.70;;;;;;;18.11;100.00;101909.44;106866;1250;74003;-71
2023/09/06 07:28:24;;;;;;;13.60;6.50;;;;;;;18.26;100.00;101912.44;106804;1250;59081;-71
2023/09/06 07:30:53;;;;;;;13.00;6.30;;;;;;;18.43;100.00;101911.70;106826;1251;58996;-72
2023/09/06 07:33:22;;;;;;;11.90;5.80;;;;;;;18.61;100.00;101905.73;106953;1259;61412;-70
2023/09/06 07:35:53;;;;;;;12.70;6.20;;;;;;;18.74;100.00;101905.08;106914;1249;60779;-72
2023/09/06 07:38:23;;;;;;;12.10;5.60;;;;;;;18.86;100.00;101905.09;106875;1259;59770;-73
2023/09/06 07:41:00;;;;;;;11.10;6.20;;;;;;;19.00;100.00;101901.41;106772;1250;63072;-69
2023/09/06 07:43:30;;;;;;;9.50;5.20;;;;;;;19.13;100.00;101898.41;106485;1254;60816;-68
2023/09/06 07:46:00;;;;;;;10.40;5.80;;;;;;;19.21;100.00;101898.98;106605;1250;61986;-71
2023/09/06 07:48:31;;;;;;;9.80;5.60;;;;;;;19.27;100.00;101892.40;106531;1247;74097;-68
2023/09/06 07:51:03;;;;;;;11.60;6.40;;;;;;;19.40;100.00;101890.16;106655;1258;61803;-69
2023/09/06 07:53:33;;;;;;;11.30;7.00;;;;;;;19.60;100.00;101889.93;106870;1247;70379;-69
2023/09/06 07:56:05;;;;;;;10.00;5.20;;;;;;;19.79;100.00;101894.73;106914;1249;62836;-69
2023/09/06 07:58:42;;;;;;;9.20;5.40;;;;;;;19.98;100.00;101892.41;106899;1249;60487;-69
2023/09/06 08:01:11;;;;;;;8.00;4.90;;;;;;;20.12;100.00;101890.23;106916;1259;57614;-70
2023/09/06 08:03:47;;;;;;;7.20;4.60;;;;;;;20.22;100.00;101890.66;106805;1246;61365;-69
2023/09/06 08:06:17;;;;;;;8.70;5.30;;;;;;;20.37;100.00;101890.18;106696;1250;70988;-69
2023/09/06 08:08:46;;;;;;;10.80;5.20;;;;;;;20.49;98.02;101886.05;106711;1248;60485;-69
2023/09/06 08:11:19;;;;;;;9.80;5.40;;;;;;;20.59;96.44;101884.38;106833;1249;74356;-69
2023/09/06 08:13:47;;;;;;;8.30;4.50;;;;;;;20.68;95.22;101880.98;106811;1257;61230;-70
2023/09/06 08:16:17;;;;;;;8.40;5.30;;;;;;;20.79;93.73;101884.02;106937;1246;61027;-68
2023/09/06 08:18:46;;;;;;;6.60;4.10;;;;;;;20.92;92.77;101880.91;106924;1246;62682;-70
2023/09/06 08:21:16;;;;;;;5.90;4.30;;;;;;;21.11;90.10;101881.96;106892;1247;71510;-71
2023/09/06 08:23:45;;;;;;;12.30;5.20;;;;;;;21.28;91.25;101879.87;106843;1246;70304;-72
2023/09/06 08:26:14;;;;;;;10.20;4.60;;;;;;;21.43;89.52;101878.95;106728;1249;72942;-71
2023/09/06 08:28:43;;;;;;;6.30;4.10;;;;;;;21.58;89.85;101878.02;106788;1247;58289;-72
2023/09/06 08:31:12;;;;;;;7.70;4.70;;;;;;;21.67;85.55;101877.94;106745;1251;60167;-70
2023/09/06 08:33:41;;;;;;;7.60;4.80;;;;;;;21.76;85.86;101870.44;106686;1251;62463;-68
2023/09/06 08:36:11;;;;;;;7.30;4.10;;;;;;;21.93;85.78;101869.73;106768;1250;62785;-68
2023/09/06 08:38:41;;;;;;;6.30;4.30;;;;;;;22.11;82.84;101869.56;106755;1248;70295;-69
2023/09/06 08:41:10;;;;;;;16.30;8.40;;;;;;;22.20;80.44;101867.39;106791;1248;74231;-69
2023/09/06 08:43:43;;;;;;;10.10;4.50;;;;;;;22.31;81.56;101868.04;106768;1248;61240;-71
2023/09/06 08:46:21;;;;;;;7.60;4.40;;;;;;;22.34;81.11;101865.89;106757;1251;60943;-70
2023/09/06 08:48:52;;;;;;;6.90;4.70;;;;;;;22.39;79.43;101865.88;106687;1250;73512;-71
2023/09/06 08:51:22;;;;;;;7.90;4.20;;;;;;;22.47;77.07;101861.74;106633;1251;62763;-70
2023/09/06 08:53:52;;;;;;;6.50;4.00;;;;;;;22.59;76.26;101859.07;106510;1259;60969;-70
2023/09/06 08:56:21;;;;;;;5.90;3.60;;;;;;;22.70;75.23;101855.90;106530;1254;63629;-70
2023/09/06 08:58:50;;;;;;;6.90;4.20;;;;;;;22.77;71.03;101857.64;106677;1250;60681;-69
2023/09/06 09:01:19;;;;;;;5.80;3.90;;;;;;;22.83;72.18;101859.45;106798;1250;61587;-70
2023/09/06 09:03:49;;;;;;;8.90;4.50;;;;;;;22.89;69.56;101852.36;106787;1246;73079;-71
2023/09/06 09:06:18;;;;;;;7.80;4.20;;;;;;;22.99;70.41;101851.63;106776;1259;71880;-71
2023/09/06 09:08:47;;;;;;;10.30;6.60;;;;;;;23.13;70.74;101849.43;106707;1251;59843;-69
2023/09/06 09:11:19;;;;;;;9.00;4.40;;;;;;;23.24;69.77;101845.54;106789;1250;63719;-69
2023/09/06 09:13:47;;;;;;;8.90;4.10;;;;;;;23.34;70.31;101848.30;106749;1257;60957;-69
2023/09/06 09:16:17;;;;;;;7.50;3.90;;;;;;;23.34;67.88;101842.44;106749;1248;61398;-69
2023/09/06 09:18:47;;;;;;;10.00;4.10;;;;;;;23.41;65.30;101845.08;106744;1250;63070;-69
2023/09/06 09:21:16;;;;;;;6.70;4.00;;;;;;;23.48;66.26;101845.54;106671;1251;71338;-69
2023/09/06 09:23:55;;;;;;;7.60;4.20;;;;;;;23.51;66.61;101840.36;106775;1246;70915;-69
2023/09/06 09:26:24;;;;;;;8.50;4.50;;;;;;;23.63;67.34;101837.03;106780;1250;64487;-69
2023/09/06 09:28:54;;;;;;;5.20;3.00;;;;;;;23.67;61.06;101835.64;106868;1259;57444;-69
2023/09/06 09:31:26;;;;;;;8.40;3.60;;;;;;;23.71;55.32;101836.86;106907;1247;58937;-71
2023/09/06 09:33:55;;;;;;;7.80;3.40;;;;;;;23.95;54.33;101834.46;106704;1248;63432;-70
2023/09/06 09:36:28;;;;;;;5.60;3.60;;;;;;;24.29;52.18;101833.15;106874;1250;61713;-70
2023/09/06 09:38:57;;;;;;;6.00;3.60;;;;;;;24.48;50.71;101828.90;106941;1259;59600;-70
2023/09/06 09:41:26;;;;;;;8.40;3.60;;;;;;;24.59;51.69;101825.52;106966;1258;62597;-70
2023/09/06 09:44:15;;;;;;;10.90;4.10;;;;;;;24.62;52.28;101831.19;106939;1249;60410;-72
2023/09/06 09:46:45;;;;;;;6.70;3.70;;;;;;;24.57;52.28;101823.23;106678;1259;57555;-72
2023/09/06 09:49:17;;;;;;;6.10;3.40;;;;;;;24.54;52.61;101828.34;106769;1257;73299;-71
2023/09/06 09:51:50;;;;;;;11.50;4.00;;;;;;;24.53;53.07;101825.80;106641;1248;71418;-70
2023/09/06 09:54:23;;;;;;;8.60;4.00;;;;;;;24.55;54.02;101819.32;106772;1250;69996;-70
2023/09/06 09:57:06;;;;;;;5.70;3.30;;;;;;;24.61;54.57;101819.24;106823;1250;73681;-69
2023/09/06 09:59:39;;;;;;;;;;;;;;;24.61;53.16;101820.66;106885;1247;58877;-70
2023/09/06 10:02:15;;;;;;;11.90;4.40;;;;;;;24.58;53.79;101821.34;106900;1249;59179;-69
2023/09/06 10:04:57;;;;;;;5.50;3.40;;;;;;;24.62;54.25;101823.31;106827;1250;62989;-69
2023/09/06 10:07:26;;;;;;;9.20;3.60;;;;;;;24.69;54.88;101820.63;106827;1249;62059;-68
2023/09/06 10:10:18;;;;;;;6.80;3.50;;;;;;;24.68;53.59;101822.71;106820;1248;70872;-68
2023/09/06 10:12:50;;;;;;;6.50;3.60;;;;;;;24.81;53.31;101820.61;106778;1251;64761;-68
2023/09/06 10:15:23;;;;;;;7.50;3.50;;;;;;;24.72;51.86;101812.81;106853;1254;59165;-69
2023/09/06 10:17:55;;;;;;;9.20;3.30;;;;;;;24.71;51.50;101814.15;106830;1249;59029;-69
2023/09/06 10:20:26;;;;;;;5.20;3.80;;;;;;;24.72;52.62;101812.96;106825;1247;62927;-69
2023/09/06 10:22:58;;;;;;;5.50;3.00;;;;;;;24.88;52.94;101812.02;106865;1251;71872;-68
2023/09/06 10:25:28;;;;;;;7.60;3.60;;;;;;;24.99;52.28;101809.31;106805;1251;60182;-67
2023/09/06 10:27:59;;;;;;;4.90;3.30;;;;;;;25.14;51.01;101804.13;106658;1251;71733;-67
2023/09/06 10:30:50;;;;;;;6.00;3.20;;;;;;;25.44;51.11;101806.45;106623;1257;61703;-68
2023/09/06 10:33:37;;;;;;;8.20;3.60;;;;;;;25.69;49.01;101806.21;106708;1248;59054;-68
2023/09/06 10:36:09;;;;;;;6.60;3.20;;;;;;;25.94;49.05;101805.51;106723;1258;62393;-69
2023/09/06 10:38:57;;;;;;;6.20;3.50;;;;;;;26.34;49.67;101800.01;106701;1249;60672;-69
2023/09/06 10:41:26;;;;;;;7.70;3.60;;;;;;;26.58;47.10;101798.04;106729;1249;70399;-70
2023/09/06 10:43:58;;;;;;;5.80;3.50;;;;;;;26.49;45.85;101798.79;106771;1251;73938;-69
2023/09/06 10:46:33;;;;;;;4.50;3.20;;;;;;;26.77;46.68;101794.96;106713;1251;61742;-70
